sensor_id;sensor_type;location;lat;lon;timestamp;temperature;humidity
26503;DHT22;14177;51.520;6.764;2023-05-20T00:00:46;13.60;98.80
26503;DHT22;14177;51.520;6.764;2023-05-20T00:03:18;13.60;98.90
26503;DHT22;14177;51.520;6.764;2023-05-20T00:05:48;13.60;99.00
26503;DHT22;14177;51.520;6.764;2023-05-20T00:08:17;13.60;99.30
26503;DHT22;14177;51.520;6.764;2023-05-20T00:10:45;13.50;99.40
26503;DHT22;14177;51.520;6.764;2023-05-20T00:13:12;13.50;99.60
26503;DHT22;14177;51.520;6.764;2023-05-20T00:15:39;13.40;99.80
26503;DHT22;14177;51.520;6.764;2023-05-20T00:18:06;13.50;99.90
26503;DHT22;14177;51.520;6.764;2023-05-20T00:20:33;13.40;99.90
26503;DHT22;14177;51.520;6.764;2023-05-20T00:23:00;13.40;99.90
26503;DHT22;14177;51.520;6.764;2023-05-20T00:25:27;13.40;99.90
26503;DHT22;14177;51.520;6.764;2023-05-20T00:27:57;13.40;99.90
26503;DHT22;14177;51.520;6.764;2023-05-20T00:30:25;13.40;99.90
26503;DHT22;14177;51.520;6.764;2023-05-20T00:32:52;13.30;99.90
26503;DHT22;14177;51.520;6.764;2023-05-20T00:35:19;13.30;99.90
26503;DHT22;14177;51.520;6.764;2023-05-20T00:37:46;13.30;99.90
26503;DHT22;14177;51.520;6.764;2023-05-20T00:40:13;13.20;99.90
26503;DHT22;14177;51.520;6.764;2023-05-20T00:42:41;13.20;99.90
26503;DHT22;14177;51.520;6.764;2023-05-20T00:45:09;13.20;99.90
26503;DHT22;14177;51.520;6.764;2023-05-20T00:47:37;13.20;99.90
26503;DHT22;14177;51.520;6.764;2023-05-20T00:50:06;13.20;99.90
26503;DHT22;14177;51.520;6.764;2023-05-20T00:52:36;13.10;99.90
26503;DHT22;14177;51.520;6.764;2023-05-20T00:55:04;13.10;99.90
26503;DHT22;14177;51.520;6.764;2023-05-20T00:57:31;13.10;99.90
26503;DHT22;14177;51.520;6.764;2023-05-20T00:59:58;13.00;99.90
26503;DHT22;14177;51.520;6.764;2023-05-20T01:02:26;13.00;99.90
26503;DHT22;14177;51.520;6.764;2023-05-20T01:04:53;13.00;99.90
26503;DHT22;14177;51.520;6.764;2023-05-20T01:07:22;12.90;99.90
26503;DHT22;14177;51.520;6.764;2023-05-20T01:09:51;12.90;99.90
26503;DHT22;14177;51.520;6.764;2023-05-20T01:12:26;12.90;99.90
26503;DHT22;14177;51.520;6.764;2023-05-20T01:15:10;12.80;99.90
26503;DHT22;14177;51.520;6.764;2023-05-20T01:17:42;12.90;99.90
26503;DHT22;14177;51.520;6.764;2023-05-20T01:20:13;12.80;99.90
26503;DHT22;14177;51.520;6.764;2023-05-20T01:22:53;12.80;99.90
26503;DHT22;14177;51.520;6.764;2023-05-20T01:25:23;12.70;99.90
26503;DHT22;14177;51.520;6.764;2023-05-20T01:27:56;12.70;99.90
26503;DHT22;14177;51.520;6.764;2023-05-20T01:30:41;12.70;99.90
26503;DHT22;14177;51.520;6.764;2023-05-20T01:33:14;12.60;99.90
26503;DHT22;14177;51.520;6.764;2023-05-20T01:35:44;12.60;99.90
26503;DHT22;14177;51.520;6.764;2023-05-20T01:38:12;12.60;99.90
26503;DHT22;14177;51.520;6.764;2023-05-20T01:40:42;12.50;99.90
26503;DHT22;14177;51.520;6.764;2023-05-20T01:43:10;12.40;99.90
26503;DHT22;14177;51.520;6.764;2023-05-20T01:45:41;12.40;99.90
26503;DHT22;14177;51.520;6.764;2023-05-20T01:48:09;12.40;99.90
26503;DHT22;14177;51.520;6.764;2023-05-20T01:50:38;12.40;99.90
26503;DHT22;14177;51.520;6.764;2023-05-20T01:53:05;12.30;99.90
26503;DHT22;14177;51.520;6.764;2023-05-20T01:55:35;12.30;99.90
26503;DHT22;14177;51.520;6.764;2023-05-20T01:58:06;12.30;99.90
26503;DHT22;14177;51.520;6.764;2023-05-20T02:00:35;12.30;99.90
26503;DHT22;14177;51.520;6.764;2023-05-20T02:03:07;12.20;99.90
26503;DHT22;14177;51.520;6.764;2023-05-20T02:05:38;12.20;99.90
26503;DHT22;14177;51.520;6.764;2023-05-20T02:08:22;12.20;99.90
26503;DHT22;14177;51.520;6.764;2023-05-20T02:11:01;12.20;99.90
26503;DHT22;14177;51.520;6.764;2023-05-20T02:13:36;12.10;99.90
26503;DHT22;14177;51.520;6.764;2023-05-20T02:16:15;12.10;99.90
26503;DHT22;14177;51.520;6.764;2023-05-20T02:18:44;12.20;99.90
26503;DHT22;14177;51.520;6.764;2023-05-20T02:21:19;12.10;99.90
26503;DHT22;14177;51.520;6.764;2023-05-20T02:24:05;12.10;99.90
26503;DHT22;14177;51.520;6.764;2023-05-20T02:26:50;12.10;99.90
26503;DHT22;14177;51.520;6.764;2023-05-20T02:29:52;12.10;99.90
26503;DHT22;14177;51.520;6.764;2023-05-20T02:32:21;12.10;99.90
26503;DHT22;14177;51.520;6.764;2023-05-20T02:34:56;12.00;99.90
26503;DHT22;14177;51.520;6.764;2023-05-20T02:37:28;12.00;99.90
26503;DHT22;14177;51.520;6.764;2023-05-20T02:39:58;12.00;99.90
26503;DHT22;14177;51.520;6.764;2023-05-20T02:42:56;12.00;99.90
26503;DHT22;14177;51.520;6.764;2023-05-20T02:45:45;11.90;99.90
26503;DHT22;14177;51.520;6.764;2023-05-20T02:48:30;11.90;99.90
26503;DHT22;14177;51.520;6.764;2023-05-20T02:51:45;11.90;99.90
26503;DHT22;14177;51.520;6.764;2023-05-20T02:54:48;11.80;99.90
26503;DHT22;14177;51.520;6.764;2023-05-20T02:57:35;11.80;99.90
26503;DHT22;14177;51.520;6.764;2023-05-20T03:00:16;11.70;99.90
26503;DHT22;14177;51.520;6.764;2023-05-20T03:02:46;11.70;99.90
26503;DHT22;14177;51.520;6.764;2023-05-20T03:05:14;11.70;99.90
26503;DHT22;14177;51.520;6.764;2023-05-20T03:07:47;11.70;99.90
26503;DHT22;14177;51.520;6.764;2023-05-20T03:10:17;11.60;99.90
26503;DHT22;14177;51.520;6.764;2023-05-20T03:13:04;11.60;99.90
26503;DHT22;14177;51.520;6.764;2023-05-20T03:15:53;11.60;99.90
26503;DHT22;14177;51.520;6.764;2023-05-20T03:18:38;11.60;99.90
26503;DHT22;14177;51.520;6.764;2023-05-20T03:21:12;11.50;99.90
26503;DHT22;14177;51.520;6.764;2023-05-20T03:23:56;11.50;99.90
26503;DHT22;14177;51.520;6.764;2023-05-20T03:26:31;11.50;99.90
26503;DHT22;14177;51.520;6.764;2023-05-20T03:29:09;11.40;99.90
26503;DHT22;14177;51.520;6.764;2023-05-20T03:31:42;11.40;99.90
26503;DHT22;14177;51.520;6.764;2023-05-20T03:34:14;11.40;99.90
26503;DHT22;14177;51.520;6.764;2023-05-20T03:36:49;11.30;99.90
26503;DHT22;14177;51.520;6.764;2023-05-20T03:39:27;11.40;99.90
26503;DHT22;14177;51.520;6.764;2023-05-20T03:41:54;11.30;99.90
26503;DHT22;14177;51.520;6.764;2023-05-20T03:44:21;11.30;99.90
26503;DHT22;14177;51.520;6.764;2023-05-20T03:46:48;11.20;99.90
26503;DHT22;14177;51.520;6.764;2023-05-20T03:49:15;11.30;99.90
26503;DHT22;14177;51.520;6.764;2023-05-20T03:51:42;11.20;99.90
26503;DHT22;14177;51.520;6.764;2023-05-20T03:54:11;11.20;99.90
26503;DHT22;14177;51.520;6.764;2023-05-20T03:56:39;11.20;99.90
26503;DHT22;14177;51.520;6.764;2023-05-20T03:59:06;11.20;99.90
26503;DHT22;14177;51.520;6.764;2023-05-20T04:01:33;11.20;99.90
26503;DHT22;14177;51.520;6.764;2023-05-20T04:04:00;11.20;99.90
26503;DHT22;14177;51.520;6.764;2023-05-20T04:06:28;11.20;99.90
26503;DHT22;14177;51.520;6.764;2023-05-20T04:08:56;11.20;99.90
26503;DHT22;14177;51.520;6.764;2023-05-20T04:11:23;11.20;99.90
26503;DHT22;14177;51.520;6.764;2023-05-20T04:13:50;11.20;99.90
26503;DHT22;14177;51.520;6.764;2023-05-20T04:16:17;11.20;99.90
26503;DHT22;14177;51.520;6.764;2023-05-20T04:18:44;11.20;99.90
26503;DHT22;14177;51.520;6.764;2023-05-20T04:21:12;11.20;99.90
26503;DHT22;14177;51.520;6.764;2023-05-20T04:23:39;11.30;99.90
26503;DHT22;14177;51.520;6.764;2023-05-20T04:26:06;11.30;99.90
26503;DHT22;14177;51.520;6.764;2023-05-20T04:28:33;11.30;99.90
26503;DHT22;14177;51.520;6.764;2023-05-20T04:31:03;11.40;99.90
26503;DHT22;14177;51.520;6.764;2023-05-20T04:33:33;11.40;99.90
26503;DHT22;14177;51.520;6.764;2023-05-20T04:36:06;11.40;99.90
26503;DHT22;14177;51.520;6.764;2023-05-20T04:38:35;11.40;99.90
26503;DHT22;14177;51.520;6.764;2023-05-20T04:41:03;11.50;99.90
26503;DHT22;14177;51.520;6.764;2023-05-20T04:43:30;11.50;99.90
26503;DHT22;14177;51.520;6.764;2023-05-20T04:45:58;11.50;99.90
26503;DHT22;14177;51.520;6.764;2023-05-20T04:48:27;11.50;99.90
26503;DHT22;14177;51.520;6.764;2023-05-20T04:50:53;11.50;99.90
26503;DHT22;14177;51.520;6.764;2023-05-20T04:53:20;11.60;99.90
26503;DHT22;14177;51.520;6.764;2023-05-20T04:55:49;11.60;99.90
26503;DHT22;14177;51.520;6.764;2023-05-20T04:58:21;11.60;99.90
26503;DHT22;14177;51.520;6.764;2023-05-20T05:00:50;11.70;99.90
26503;DHT22;14177;51.520;6.764;2023-05-20T05:03:18;11.60;99.90
26503;DHT22;14177;51.520;6.764;2023-05-20T05:05:45;11.70;99.90
26503;DHT22;14177;51.520;6.764;2023-05-20T05:08:13;11.70;99.90
26503;DHT22;14177;51.520;6.764;2023-05-20T05:10:46;11.80;99.90
26503;DHT22;14177;51.520;6.764;2023-05-20T05:13:13;11.80;99.90
26503;DHT22;14177;51.520;6.764;2023-05-20T05:15:40;11.90;99.90
26503;DHT22;14177;51.520;6.764;2023-05-20T05:18:08;11.90;99.90
26503;DHT22;14177;51.520;6.764;2023-05-20T05:20:35;11.90;99.90
26503;DHT22;14177;51.520;6.764;2023-05-20T05:23:03;12.00;99.90
26503;DHT22;14177;51.520;6.764;2023-05-20T05:25:30;12.00;99.90
26503;DHT22;14177;51.520;6.764;2023-05-20T05:27:58;12.10;99.90
26503;DHT22;14177;51.520;6.764;2023-05-20T05:30:25;12.20;99.90
26503;DHT22;14177;51.520;6.764;2023-05-20T05:32:53;12.30;99.90
26503;DHT22;14177;51.520;6.764;2023-05-20T05:35:21;12.40;99.90
26503;DHT22;14177;51.520;6.764;2023-05-20T05:37:48;12.50;99.90
26503;DHT22;14177;51.520;6.764;2023-05-20T05:40:15;12.50;99.90
26503;DHT22;14177;51.520;6.764;2023-05-20T05:42:42;12.60;99.90
26503;DHT22;14177;51.520;6.764;2023-05-20T05:45:10;12.70;99.90
26503;DHT22;14177;51.520;6.764;2023-05-20T05:47:37;12.80;99.90
26503;DHT22;14177;51.520;6.764;2023-05-20T05:50:04;12.90;99.90
26503;DHT22;14177;51.520;6.764;2023-05-20T05:52:33;13.00;99.90
26503;DHT22;14177;51.520;6.764;2023-05-20T05:55:02;13.10;99.90
26503;DHT22;14177;51.520;6.764;2023-05-20T05:57:29;13.20;99.90
26503;DHT22;14177;51.520;6.764;2023-05-20T05:59:58;13.30;99.90
26503;DHT22;14177;51.520;6.764;2023-05-20T06:02:25;13.40;99.90
26503;DHT22;14177;51.520;6.764;2023-05-20T06:04:53;13.50;99.90
26503;DHT22;14177;51.520;6.764;2023-05-20T06:07:20;13.60;99.90
26503;DHT22;14177;51.520;6.764;2023-05-20T06:09:47;13.70;99.90
26503;DHT22;14177;51.520;6.764;2023-05-20T06:12:15;13.80;99.90
26503;DHT22;14177;51.520;6.764;2023-05-20T06:14:43;13.90;99.90
26503;DHT22;14177;51.520;6.764;2023-05-20T06:17:10;14.00;99.90
26503;DHT22;14177;51.520;6.764;2023-05-20T06:19:37;14.10;99.90
26503;DHT22;14177;51.520;6.764;2023-05-20T06:22:05;14.20;99.90
26503;DHT22;14177;51.520;6.764;2023-05-20T06:24:33;14.30;99.90
26503;DHT22;14177;51.520;6.764;2023-05-20T06:27:05;14.40;99.90
26503;DHT22;14177;51.520;6.764;2023-05-20T06:29:34;14.50;99.90
26503;DHT22;14177;51.520;6.764;2023-05-20T06:32:06;14.60;99.90
26503;DHT22;14177;51.520;6.764;2023-05-20T06:34:34;14.70;99.90
26503;DHT22;14177;51.520;6.764;2023-05-20T06:37:01;14.80;99.90
26503;DHT22;14177;51.520;6.764;2023-05-20T06:39:28;14.90;99.90
26503;DHT22;14177;51.520;6.764;2023-05-20T06:41:55;15.00;99.90
26503;DHT22;14177;51.520;6.764;2023-05-20T06:44:33;15.10;99.90
26503;DHT22;14177;51.520;6.764;2023-05-20T06:47:14;15.30;99.90
26503;DHT22;14177;51.520;6.764;2023-05-20T06:49:44;15.40;99.90
26503;DHT22;14177;51.520;6.764;2023-05-20T06:52:13;15.50;99.90
26503;DHT22;14177;51.520;6.764;2023-05-20T06:54:40;15.70;99.90
26503;DHT22;14177;51.520;6.764;2023-05-20T06:57:10;15.80;99.90
26503;DHT22;14177;51.520;6.764;2023-05-20T06:59:37;15.90;99.90
26503;DHT22;14177;51.520;6.764;2023-05-20T07:02:06;16.00;99.90
26503;DHT22;14177;51.520;6.764;2023-05-20T07:04:33;16.10;99.90
26503;DHT22;14177;51.520;6.764;2023-05-20T07:07:00;16.20;99.90
26503;DHT22;14177;51.520;6.764;2023-05-20T07:09:27;16.30;99.90
26503;DHT22;14177;51.520;6.764;2023-05-20T07:11:54;16.40;99.90
26503;DHT22;14177;51.520;6.764;2023-05-20T07:14:21;16.50;99.90
26503;DHT22;14177;51.520;6.764;2023-05-20T07:16:49;16.60;99.90
26503;DHT22;14177;51.520;6.764;2023-05-20T07:19:16;16.80;99.90
26503;DHT22;14177;51.520;6.764;2023-05-20T07:21:44;16.90;99.90
26503;DHT22;14177;51.520;6.764;2023-05-20T07:24:16;17.10;99.90
26503;DHT22;14177;51.520;6.764;2023-05-20T07:26:43;17.30;99.90
26503;DHT22;14177;51.520;6.764;2023-05-20T07:29:14;17.50;99.90
26503;DHT22;14177;51.520;6.764;2023-05-20T07:31:41;17.40;99.20
26503;DHT22;14177;51.520;6.764;2023-05-20T07:34:08;17.30;98.90
26503;DHT22;14177;51.520;6.764;2023-05-20T07:36:35;17.20;99.20
26503;DHT22;14177;51.520;6.764;2023-05-20T07:39:05;17.10;99.70
26503;DHT22;14177;51.520;6.764;2023-05-20T07:41:39;17.00;99.80
26503;DHT22;14177;51.520;6.764;2023-05-20T07:44:06;17.00;99.90
26503;DHT22;14177;51.520;6.764;2023-05-20T07:46:38;17.00;99.80
26503;DHT22;14177;51.520;6.764;2023-05-20T07:49:08;17.10;99.90
26503;DHT22;14177;51.520;6.764;2023-05-20T07:51:37;17.10;99.60
26503;DHT22;14177;51.520;6.764;2023-05-20T07:54:04;17.20;99.90
26503;DHT22;14177;51.520;6.764;2023-05-20T07:56:32;17.20;99.90
26503;DHT22;14177;51.520;6.764;2023-05-20T07:58:59;17.30;99.90
26503;DHT22;14177;51.520;6.764;2023-05-20T08:01:33;17.30;99.90
26503;DHT22;14177;51.520;6.764;2023-05-20T08:04:01;17.40;99.90
26503;DHT22;14177;51.520;6.764;2023-05-20T08:06:28;17.40;99.90
26503;DHT22;14177;51.520;6.764;2023-05-20T08:08:56;17.50;99.90
26503;DHT22;14177;51.520;6.764;2023-05-20T08:11:29;17.50;99.90
26503;DHT22;14177;51.520;6.764;2023-05-20T08:13:56;17.60;99.90
26503;DHT22;14177;51.520;6.764;2023-05-20T08:16:26;17.70;99.30
26503;DHT22;14177;51.520;6.764;2023-05-20T08:18:53;17.70;99.80
26503;DHT22;14177;51.520;6.764;2023-05-20T08:21:20;17.70;99.60
26503;DHT22;14177;51.520;6.764;2023-05-20T08:23:48;17.70;99.40
26503;DHT22;14177;51.520;6.764;2023-05-20T08:26:16;17.70;99.50
26503;DHT22;14177;51.520;6.764;2023-05-20T08:28:43;17.70;99.90
26503;DHT22;14177;51.520;6.764;2023-05-20T08:31:10;17.80;99.90
26503;DHT22;14177;51.520;6.764;2023-05-20T08:33:37;17.80;99.90
26503;DHT22;14177;51.520;6.764;2023-05-20T08:36:05;17.90;99.90
26503;DHT22;14177;51.520;6.764;2023-05-20T08:38:33;17.90;99.00
26503;DHT22;14177;51.520;6.764;2023-05-20T08:41:02;17.90;98.80
26503;DHT22;14177;51.520;6.764;2023-05-20T08:43:30;17.90;99.50
26503;DHT22;14177;51.520;6.764;2023-05-20T08:45:59;18.00;99.90
26503;DHT22;14177;51.520;6.764;2023-05-20T08:48:29;18.20;99.90
26503;DHT22;14177;51.520;6.764;2023-05-20T08:50:57;18.30;99.40
26503;DHT22;14177;51.520;6.764;2023-05-20T08:53:25;18.50;99.00
26503;DHT22;14177;51.520;6.764;2023-05-20T08:55:54;18.60;99.00
26503;DHT22;14177;51.520;6.764;2023-05-20T08:58:29;18.70;98.70
26503;DHT22;14177;51.520;6.764;2023-05-20T09:00:58;18.80;97.90
26503;DHT22;14177;51.520;6.764;2023-05-20T09:03:25;18.90;97.30
26503;DHT22;14177;51.520;6.764;2023-05-20T09:05:53;18.80;96.80
26503;DHT22;14177;51.520;6.764;2023-05-20T09:08:29;18.80;96.60
26503;DHT22;14177;51.520;6.764;2023-05-20T09:10:56;18.90;97.00
26503;DHT22;14177;51.520;6.764;2023-05-20T09:13:23;18.90;97.00
26503;DHT22;14177;51.520;6.764;2023-05-20T09:15:52;18.90;95.80
26503;DHT22;14177;51.520;6.764;2023-05-20T09:18:19;18.90;95.60
26503;DHT22;14177;51.520;6.764;2023-05-20T09:20:48;19.00;97.00
26503;DHT22;14177;51.520;6.764;2023-05-20T09:23:18;19.10;96.30
26503;DHT22;14177;51.520;6.764;2023-05-20T09:25:51;19.10;96.00
26503;DHT22;14177;51.520;6.764;2023-05-20T09:28:21;19.20;95.80
26503;DHT22;14177;51.520;6.764;2023-05-20T09:30:49;19.10;95.20
26503;DHT22;14177;51.520;6.764;2023-05-20T09:33:19;19.00;95.50
26503;DHT22;14177;51.520;6.764;2023-05-20T09:35:48;19.10;94.80
26503;DHT22;14177;51.520;6.764;2023-05-20T09:38:15;19.00;96.20
26503;DHT22;14177;51.520;6.764;2023-05-20T09:40:44;19.20;95.80
26503;DHT22;14177;51.520;6.764;2023-05-20T09:43:13;19.30;96.30
26503;DHT22;14177;51.520;6.764;2023-05-20T09:45:41;19.30;95.10
26503;DHT22;14177;51.520;6.764;2023-05-20T09:48:08;19.40;94.10
26503;DHT22;14177;51.520;6.764;2023-05-20T09:50:37;19.30;94.80
26503;DHT22;14177;51.520;6.764;2023-05-20T09:53:04;19.30;94.30
26503;DHT22;14177;51.520;6.764;2023-05-20T09:55:32;19.40;95.50
26503;DHT22;14177;51.520;6.764;2023-05-20T09:58:01;19.40;94.40
26503;DHT22;14177;51.520;6.764;2023-05-20T10:00:29;19.40;94.70
26503;DHT22;14177;51.520;6.764;2023-05-20T10:02:57;19.40;94.20
26503;DHT22;14177;51.520;6.764;2023-05-20T10:05:30;19.40;94.70
26503;DHT22;14177;51.520;6.764;2023-05-20T10:11:06;19.30;94.00
26503;DHT22;14177;51.520;6.764;2023-05-20T10:14:08;19.50;94.50
26503;DHT22;14177;51.520;6.764;2023-05-20T10:19:36;19.50;94.20
26503;DHT22;14177;51.520;6.764;2023-05-20T10:22:08;19.50;93.50
26503;DHT22;14177;51.520;6.764;2023-05-20T10:24:40;19.50;94.10
26503;DHT22;14177;51.520;6.764;2023-05-20T10:27:12;19.50;94.00
26503;DHT22;14177;51.520;6.764;2023-05-20T10:29:48;19.40;93.60
26503;DHT22;14177;51.520;6.764;2023-05-20T10:32:28;19.30;93.50
26503;DHT22;14177;51.520;6.764;2023-05-20T10:35:07;19.20;93.90
26503;DHT22;14177;51.520;6.764;2023-05-20T10:37:42;19.10;94.40
26503;DHT22;14177;51.520;6.764;2023-05-20T10:40:13;19.20;95.00
26503;DHT22;14177;51.520;6.764;2023-05-20T10:42:42;19.20;94.40
26503;DHT22;14177;51.520;6.764;2023-05-20T10:45:09;19.30;94.50
26503;DHT22;14177;51.520;6.764;2023-05-20T10:47:41;19.30;94.90
26503;DHT22;14177;51.520;6.764;2023-05-20T10:50:41;19.30;93.90
26503;DHT22;14177;51.520;6.764;2023-05-20T10:53:11;19.30;95.00
26503;DHT22;14177;51.520;6.764;2023-05-20T10:55:58;19.30;95.70
26503;DHT22;14177;51.520;6.764;2023-05-20T10:58:25;19.40;95.50
26503;DHT22;14177;51.520;6.764;2023-05-20T11:00:53;19.50;95.10
26503;DHT22;14177;51.520;6.764;2023-05-20T11:04:14;19.60;95.10
26503;DHT22;14177;51.520;6.764;2023-05-20T11:07:31;19.70;95.60
26503;DHT22;14177;51.520;6.764;2023-05-20T11:10:42;19.90;94.80
26503;DHT22;14177;51.520;6.764;2023-05-20T11:14:01;20.00;94.90
26503;DHT22;14177;51.520;6.764;2023-05-20T11:16:51;20.10;93.80
26503;DHT22;14177;51.520;6.764;2023-05-20T11:19:26;20.10;93.40
26503;DHT22;14177;51.520;6.764;2023-05-20T11:22:16;20.10;92.80
26503;DHT22;14177;51.520;6.764;2023-05-20T11:28:20;19.90;93.20
26503;DHT22;14177;51.520;6.764;2023-05-20T11:31:30;19.80;93.70
26503;DHT22;14177;51.520;6.764;2023-05-20T11:34:50;19.70;93.50
26503;DHT22;14177;51.520;6.764;2023-05-20T11:41:22;19.60;94.60
26503;DHT22;14177;51.520;6.764;2023-05-20T11:48:20;19.60;95.00
26503;DHT22;14177;51.520;6.764;2023-05-20T11:52:10;19.80;95.50
26503;DHT22;14177;51.520;6.764;2023-05-20T11:55:14;19.90;95.10
26503;DHT22;14177;51.520;6.764;2023-05-20T11:57:42;20.00;95.10
26503;DHT22;14177;51.520;6.764;2023-05-20T12:00:09;20.10;95.10
26503;DHT22;14177;51.520;6.764;2023-05-20T12:02:37;20.20;94.80
26503;DHT22;14177;51.520;6.764;2023-05-20T12:05:04;20.40;94.50
26503;DHT22;14177;51.520;6.764;2023-05-20T12:07:31;20.50;94.10
26503;DHT22;14177;51.520;6.764;2023-05-20T12:09:58;20.70;93.70
26503;DHT22;14177;51.520;6.764;2023-05-20T12:12:25;20.80;92.40
26503;DHT22;14177;51.520;6.764;2023-05-20T12:14:52;20.90;93.10
26503;DHT22;14177;51.520;6.764;2023-05-20T12:17:19;21.00;93.10
26503;DHT22;14177;51.520;6.764;2023-05-20T12:19:46;21.20;93.00
26503;DHT22;14177;51.520;6.764;2023-05-20T12:22:13;21.50;92.30
26503;DHT22;14177;51.520;6.764;2023-05-20T12:24:40;21.70;91.00
26503;DHT22;14177;51.520;6.764;2023-05-20T12:27:07;21.80;90.10
26503;DHT22;14177;51.520;6.764;2023-05-20T12:29:34;21.90;89.60
26503;DHT22;14177;51.520;6.764;2023-05-20T12:32:01;22.00;90.00
26503;DHT22;14177;51.520;6.764;2023-05-20T12:34:28;22.10;87.90
26503;DHT22;14177;51.520;6.764;2023-05-20T12:36:56;22.30;87.00
26503;DHT22;14177;51.520;6.764;2023-05-20T12:39:23;22.50;85.60
26503;DHT22;14177;51.520;6.764;2023-05-20T12:41:50;22.70;83.70
26503;DHT22;14177;51.520;6.764;2023-05-20T12:44:17;22.80;82.40
26503;DHT22;14177;51.520;6.764;2023-05-20T12:46:43;22.80;81.80
26503;DHT22;14177;51.520;6.764;2023-05-20T12:49:10;22.80;79.20
26503;DHT22;14177;51.520;6.764;2023-05-20T12:51:37;22.70;79.40
26503;DHT22;14177;51.520;6.764;2023-05-20T12:54:05;22.80;80.10
26503;DHT22;14177;51.520;6.764;2023-05-20T12:56:32;22.70;78.10
26503;DHT22;14177;51.520;6.764;2023-05-20T12:58:59;22.80;79.70
26503;DHT22;14177;51.520;6.764;2023-05-20T13:01:26;22.90;78.90
26503;DHT22;14177;51.520;6.764;2023-05-20T13:03:53;22.90;78.10
26503;DHT22;14177;51.520;6.764;2023-05-20T13:06:21;22.90;77.20
26503;DHT22;14177;51.520;6.764;2023-05-20T13:08:48;22.90;77.20
26503;DHT22;14177;51.520;6.764;2023-05-20T13:11:15;22.90;75.50
26503;DHT22;14177;51.520;6.764;2023-05-20T13:13:42;22.90;76.20
26503;DHT22;14177;51.520;6.764;2023-05-20T13:16:09;22.90;75.70
26503;DHT22;14177;51.520;6.764;2023-05-20T13:18:37;22.80;72.80
26503;DHT22;14177;51.520;6.764;2023-05-20T13:21:04;22.80;74.70
26503;DHT22;14177;51.520;6.764;2023-05-20T13:23:31;22.70;73.50
26503;DHT22;14177;51.520;6.764;2023-05-20T13:25:58;22.70;73.90
26503;DHT22;14177;51.520;6.764;2023-05-20T13:28:25;22.80;74.70
26503;DHT22;14177;51.520;6.764;2023-05-20T13:30:53;23.00;73.10
26503;DHT22;14177;51.520;6.764;2023-05-20T13:33:20;23.10;74.50
26503;DHT22;14177;51.520;6.764;2023-05-20T13:35:50;23.20;74.20
26503;DHT22;14177;51.520;6.764;2023-05-20T13:38:17;23.30;73.80
26503;DHT22;14177;51.520;6.764;2023-05-20T13:40:44;23.50;73.10
26503;DHT22;14177;51.520;6.764;2023-05-20T13:43:11;23.50;71.70
26503;DHT22;14177;51.520;6.764;2023-05-20T13:45:38;23.40;71.20
26503;DHT22;14177;51.520;6.764;2023-05-20T13:48:05;23.20;69.70
26503;DHT22;14177;51.520;6.764;2023-05-20T13:50:32;23.10;70.10
26503;DHT22;14177;51.520;6.764;2023-05-20T13:52:59;22.90;70.20
26503;DHT22;14177;51.520;6.764;2023-05-20T13:55:26;22.90;71.30
26503;DHT22;14177;51.520;6.764;2023-05-20T13:57:53;22.90;71.70
26503;DHT22;14177;51.520;6.764;2023-05-20T14:00:22;22.90;72.50
26503;DHT22;14177;51.520;6.764;2023-05-20T14:02:57;23.00;71.20
26503;DHT22;14177;51.520;6.764;2023-05-20T14:06:45;22.90;69.70
26503;DHT22;14177;51.520;6.764;2023-05-20T14:09:41;22.80;70.10
26503;DHT22;14177;51.520;6.764;2023-05-20T14:31:39;22.80;69.10
26503;DHT22;14177;51.520;6.764;2023-05-20T14:34:06;22.80;69.40
26503;DHT22;14177;51.520;6.764;2023-05-20T14:36:34;22.70;68.50
26503;DHT22;14177;51.520;6.764;2023-05-20T14:39:01;22.70;69.60
26503;DHT22;14177;51.520;6.764;2023-05-20T14:41:28;22.70;68.10
26503;DHT22;14177;51.520;6.764;2023-05-20T14:43:55;22.60;68.80
26503;DHT22;14177;51.520;6.764;2023-05-20T14:46:22;22.60;69.20
26503;DHT22;14177;51.520;6.764;2023-05-20T14:48:49;22.60;69.90
26503;DHT22;14177;51.520;6.764;2023-05-20T14:51:16;22.70;70.70
26503;DHT22;14177;51.520;6.764;2023-05-20T14:53:43;22.80;70.90
26503;DHT22;14177;51.520;6.764;2023-05-20T14:56:10;22.90;70.60
26503;DHT22;14177;51.520;6.764;2023-05-20T14:58:38;22.90;69.50
26503;DHT22;14177;51.520;6.764;2023-05-20T15:01:05;22.90;69.80
26503;DHT22;14177;51.520;6.764;2023-05-20T15:03:32;22.90;69.60
26503;DHT22;14177;51.520;6.764;2023-05-20T15:06:00;22.90;69.10
26503;DHT22;14177;51.520;6.764;2023-05-20T15:08:27;22.80;69.20
26503;DHT22;14177;51.520;6.764;2023-05-20T15:10:54;22.90;69.60
26503;DHT22;14177;51.520;6.764;2023-05-20T15:13:21;22.90;69.60
26503;DHT22;14177;51.520;6.764;2023-05-20T15:15:48;23.00;70.10
26503;DHT22;14177;51.520;6.764;2023-05-20T15:18:15;22.90;69.40
26503;DHT22;14177;51.520;6.764;2023-05-20T15:20:42;22.90;69.40
26503;DHT22;14177;51.520;6.764;2023-05-20T15:23:10;22.70;68.40
26503;DHT22;14177;51.520;6.764;2023-05-20T15:25:37;22.70;69.40
26503;DHT22;14177;51.520;6.764;2023-05-20T15:28:05;22.60;68.40
26503;DHT22;14177;51.520;6.764;2023-05-20T15:30:32;22.60;68.80
26503;DHT22;14177;51.520;6.764;2023-05-20T15:32:59;22.60;69.00
26503;DHT22;14177;51.520;6.764;2023-05-20T15:35:27;22.70;68.80
26503;DHT22;14177;51.520;6.764;2023-05-20T15:37:54;22.70;68.90
26503;DHT22;14177;51.520;6.764;2023-05-20T15:40:21;22.70;68.60
26503;DHT22;14177;51.520;6.764;2023-05-20T15:42:49;22.60;68.20
26503;DHT22;14177;51.520;6.764;2023-05-20T15:45:17;22.50;68.60
26503;DHT22;14177;51.520;6.764;2023-05-20T15:47:44;22.40;68.50
26503;DHT22;14177;51.520;6.764;2023-05-20T15:50:11;22.40;68.60
26503;DHT22;14177;51.520;6.764;2023-05-20T15:52:38;22.40;68.60
26503;DHT22;14177;51.520;6.764;2023-05-20T15:55:06;22.30;69.10
26503;DHT22;14177;51.520;6.764;2023-05-20T15:57:34;22.30;69.30
26503;DHT22;14177;51.520;6.764;2023-05-20T16:00:01;22.30;68.80
26503;DHT22;14177;51.520;6.764;2023-05-20T16:02:31;22.30;69.50
26503;DHT22;14177;51.520;6.764;2023-05-20T16:05:02;22.30;70.20
26503;DHT22;14177;51.520;6.764;2023-05-20T16:07:30;22.30;70.20
26503;DHT22;14177;51.520;6.764;2023-05-20T16:09:57;22.30;70.70
26503;DHT22;14177;51.520;6.764;2023-05-20T16:12:24;22.20;70.20
26503;DHT22;14177;51.520;6.764;2023-05-20T16:14:52;22.00;69.40
26503;DHT22;14177;51.520;6.764;2023-05-20T16:17:19;21.80;70.40
26503;DHT22;14177;51.520;6.764;2023-05-20T16:19:49;21.80;70.70
26503;DHT22;14177;51.520;6.764;2023-05-20T16:22:17;21.80;70.80
26503;DHT22;14177;51.520;6.764;2023-05-20T16:24:44;21.80;71.90
26503;DHT22;14177;51.520;6.764;2023-05-20T16:27:11;21.70;72.20
26503;DHT22;14177;51.520;6.764;2023-05-20T16:29:39;21.70;73.00
26503;DHT22;14177;51.520;6.764;2023-05-20T16:32:06;21.50;72.40